createdAt,value
2019-06-26T00:00:12.630Z,5.9
2019-06-26T00:01:12.683Z,6.2
2019-06-26T00:02:12.626Z,6.2
2019-06-26T00:03:12.603Z,6.4
2019-06-26T00:04:12.577Z,6.2
2019-06-26T00:05:13.622Z,6.1
2019-06-26T00:06:12.663Z,6.1
2019-06-26T00:07:12.590Z,6.3
2019-06-26T00:08:12.545Z,6.4
2019-06-26T00:09:14.547Z,6.1
2019-06-26T00:10:12.549Z,6.1
2019-06-26T00:11:12.518Z,6.2
2019-06-26T00:12:12.521Z,6.1
2019-06-26T00:13:25.468Z,6.4
2019-06-26T00:14:14.521Z,6.2
2019-06-26T00:15:12.527Z,6.3
2019-06-26T00:16:12.471Z,6.2
2019-06-26T00:17:12.537Z,6.2
2019-06-26T00:18:12.517Z,6.2
2019-06-26T00:19:12.430Z,6.4
2019-06-26T00:20:12.426Z,5.9
2019-06-26T00:21:12.404Z,5.9
2019-06-26T00:22:12.459Z,6.3
2019-06-26T00:23:12.424Z,5.9
2019-06-26T00:24:12.402Z,6.1
2019-06-26T00:25:12.401Z,6
2019-06-26T00:26:12.384Z,6.2
2019-06-26T00:27:12.377Z,6.5
2019-06-26T00:28:12.358Z,6.2
2019-06-26T00:29:12.362Z,6.1
2019-06-26T00:30:12.324Z,6.2
2019-06-26T00:31:12.376Z,6.1
2019-06-26T00:32:12.343Z,6.2
2019-06-26T00:33:12.295Z,6.2
2019-06-26T00:34:12.294Z,6
2019-06-26T00:35:12.277Z,5.6
2019-06-26T00:36:12.317Z,6.3
2019-06-26T00:37:12.319Z,6.1
2019-06-26T00:38:12.257Z,6.1
2019-06-26T00:39:12.235Z,5.8
2019-06-26T00:40:12.250Z,5.9
2019-06-26T00:41:12.227Z,6.1
2019-06-26T00:42:12.277Z,6.2
2019-06-26T00:43:12.245Z,6
2019-06-26T00:44:12.181Z,6.2
2019-06-26T00:45:12.171Z,6
2019-06-26T00:46:12.150Z,5.9
2019-06-26T00:47:12.212Z,5.6
2019-06-26T00:48:12.124Z,5.9
2019-06-26T00:49:12.132Z,6.1
2019-06-26T00:50:12.117Z,5.8
2019-06-26T00:51:12.117Z,6.3
2019-06-26T00:52:12.170Z,5.7
2019-06-26T00:53:12.123Z,5.7
2019-06-26T00:54:12.102Z,5.9
2019-06-26T00:55:12.059Z,5.9
2019-06-26T00:56:12.053Z,6.2
2019-06-26T00:57:12.038Z,6.2
2019-06-26T00:58:12.056Z,6.2
2019-06-26T00:59:12.040Z,6.1
2019-06-26T01:00:12.011Z,5.9
2019-06-26T01:01:12.009Z,5.9
2019-06-26T01:02:12.038Z,5.9
2019-06-26T01:03:12.049Z,6.1
2019-06-26T01:04:11.972Z,5.9
2019-06-26T01:05:11.977Z,6
2019-06-26T01:06:11.942Z,5.9
2019-06-26T01:07:11.985Z,6
2019-06-26T01:08:11.951Z,5.8
2019-06-26T01:09:13.015Z,6
2019-06-26T01:10:11.920Z,6.2
2019-06-26T01:11:11.902Z,6.1
2019-06-26T01:12:11.910Z,5.9
2019-06-26T01:13:11.885Z,6.2
2019-06-26T01:14:11.952Z,6.3
2019-06-26T01:15:11.869Z,6.1
2019-06-26T01:16:12.847Z,6.1
2019-06-26T01:17:11.845Z,6
2019-06-26T01:18:11.852Z,5.8
2019-06-26T01:19:11.866Z,5.8
2019-06-26T01:20:11.804Z,6.1
2019-06-26T01:21:11.803Z,5.9
2019-06-26T01:22:12.799Z,6.2
2019-06-26T01:23:11.785Z,5.9
2019-06-26T01:24:11.780Z,6
2019-06-26T01:25:11.750Z,6.2
2019-06-26T01:26:11.754Z,6.2
2019-06-26T01:27:11.727Z,6.2
2019-06-26T01:28:11.756Z,6
2019-06-26T01:29:11.709Z,5.9
2019-06-26T01:30:11.756Z,6.2
2019-06-26T01:31:12.719Z,6.1
2019-06-26T01:32:12.675Z,5.7
2019-06-26T01:33:11.683Z,6
2019-06-26T01:34:11.661Z,5.9
2019-06-26T01:35:11.708Z,6.2
2019-06-26T01:36:11.642Z,5.9
2019-06-26T01:37:11.622Z,6.3
2019-06-26T01:38:11.639Z,5.8
2019-06-26T01:39:11.619Z,5.9
2019-06-26T01:40:11.701Z,5.8
2019-06-26T01:41:11.572Z,6.1
2019-06-26T01:42:11.567Z,6.4
2019-06-26T01:43:12.546Z,6
2019-06-26T01:44:15.596Z,6
2019-06-26T01:45:11.617Z,6.4
2019-06-26T01:46:12.515Z,6
2019-06-26T01:47:12.521Z,5.8
2019-06-26T01:48:11.514Z,6
2019-06-26T01:49:11.574Z,6.6
2019-06-26T01:50:11.506Z,6.2
2019-06-26T01:51:11.483Z,6.3
2019-06-26T01:52:11.493Z,5.9
2019-06-26T01:53:11.454Z,6
2019-06-26T01:54:11.453Z,6
2019-06-26T01:55:11.450Z,6
2019-06-26T01:56:11.490Z,5.8
2019-06-26T01:57:11.891Z,6.1
2019-06-26T01:58:11.431Z,6.1
2019-06-26T01:59:11.392Z,6.1
2019-06-26T02:00:11.390Z,6
2019-06-26T02:01:11.463Z,5.9
2019-06-26T02:02:11.378Z,5.9
2019-06-26T02:03:11.370Z,6
2019-06-26T02:04:11.380Z,6.1
2019-06-26T02:05:12.333Z,6.2
2019-06-26T02:06:11.365Z,6.3
2019-06-26T02:07:11.331Z,5.9
2019-06-26T02:08:11.314Z,5.8
2019-06-26T02:09:11.323Z,5.9
2019-06-26T02:10:11.323Z,6.1
2019-06-26T02:11:11.336Z,5.7
2019-06-26T02:12:11.277Z,6
2019-06-26T02:13:11.264Z,5.7
2019-06-26T02:14:11.239Z,6.2
2019-06-26T02:15:11.247Z,6.1
2019-06-26T02:16:11.292Z,6.3
2019-06-26T02:17:11.197Z,5.7
2019-06-26T02:18:11.202Z,5.5
2019-06-26T02:19:11.202Z,5.7
2019-06-26T02:20:11.180Z,6
2019-06-26T02:21:11.222Z,6
2019-06-26T02:22:11.199Z,5.9
2019-06-26T02:23:11.151Z,5.9
2019-06-26T02:24:11.159Z,5.9
2019-06-26T02:25:11.144Z,6.1
2019-06-26T02:26:11.221Z,6.1
2019-06-26T02:27:11.133Z,6.1
2019-06-26T02:28:11.108Z,6
2019-06-26T02:29:11.100Z,6.1
2019-06-26T02:30:11.126Z,6.1
2019-06-26T02:31:11.064Z,5.9
2019-06-26T02:32:11.065Z,5.9
2019-06-26T02:33:11.029Z,5.9
2019-06-26T02:34:11.101Z,6.1
2019-06-26T02:35:13.022Z,5.8
2019-06-26T02:36:11.019Z,5.7
2019-06-26T02:37:11.087Z,5.7
2019-06-26T02:38:10.998Z,5.9
2019-06-26T02:39:10.999Z,6
2019-06-26T02:40:11.070Z,6
2019-06-26T02:41:10.994Z,5.9
2019-06-26T02:42:11.101Z,6.1
2019-06-26T02:43:10.962Z,5.7
2019-06-26T02:44:10.966Z,6.1
2019-06-26T02:45:10.941Z,5.9
2019-06-26T02:46:11.938Z,5.9
2019-06-26T02:47:19.932Z,6.3
2019-06-26T02:48:11.911Z,5.7
2019-06-26T02:49:10.876Z,6.1
2019-06-26T02:50:10.900Z,5.8
2019-06-26T02:51:10.880Z,5.7
2019-06-26T02:52:10.922Z,5.9
2019-06-26T02:53:10.839Z,5.9
2019-06-26T02:54:10.838Z,6.2
2019-06-26T02:55:10.839Z,5.8
2019-06-26T02:56:11.805Z,6
2019-06-26T02:57:10.879Z,5.8
2019-06-26T02:58:10.790Z,6.2
2019-06-26T02:59:10.781Z,5.7
2019-06-26T03:00:10.766Z,5.8
2019-06-26T03:01:10.757Z,6.1
2019-06-26T03:02:10.751Z,5.7
2019-06-26T03:03:10.813Z,5.8
2019-06-26T03:04:10.731Z,5.8
2019-06-26T03:05:10.723Z,6
2019-06-26T03:06:10.768Z,6.1
2019-06-26T03:07:10.702Z,6.2
2019-06-26T03:08:10.760Z,6.2
2019-06-26T03:09:10.665Z,6.1
2019-06-26T03:10:11.660Z,6.1
2019-06-26T03:11:10.639Z,5.8
2019-06-26T03:12:10.638Z,6.2
2019-06-26T03:13:10.691Z,6.2
2019-06-26T03:14:10.615Z,6
2019-06-26T03:15:11.585Z,6.2
2019-06-26T03:16:10.585Z,6.1
2019-06-26T03:17:10.581Z,6.1
2019-06-26T03:18:10.637Z,6.1
2019-06-26T03:19:10.561Z,5.8
2019-06-26T03:20:10.560Z,6
2019-06-26T03:21:10.557Z,6.2
2019-06-26T03:22:10.515Z,6.1
2019-06-26T03:23:10.519Z,6.6
2019-06-26T03:24:10.514Z,6.5
2019-06-26T03:25:10.509Z,6.1
2019-06-26T03:26:11.503Z,6.2
2019-06-26T03:27:11.477Z,6.1
2019-06-26T03:28:10.473Z,6.1
2019-06-26T03:29:10.519Z,6.4
2019-06-26T03:30:10.444Z,6.3
2019-06-26T03:31:10.432Z,6.5
2019-06-26T03:32:10.433Z,6.2
2019-06-26T03:33:10.418Z,6
2019-06-26T03:34:10.497Z,6.1
2019-06-26T03:35:10.414Z,6.4
2019-06-26T03:36:10.404Z,6.4
2019-06-26T03:37:10.372Z,6.2
2019-06-26T03:38:10.384Z,6.5
2019-06-26T03:39:10.440Z,6.4
2019-06-26T03:40:10.344Z,6.5
2019-06-26T03:41:10.355Z,5.9
2019-06-26T03:42:10.335Z,6.8
2019-06-26T03:43:10.356Z,6.4
2019-06-26T03:44:10.336Z,6.4
2019-06-26T03:45:24.908Z,6.1
2019-06-26T03:46:11.351Z,5.9
2019-06-26T03:47:10.283Z,6.4
2019-06-26T03:48:10.289Z,6.3
2019-06-26T03:49:10.296Z,6.5
2019-06-26T03:50:10.296Z,6.6
2019-06-26T03:51:13.658Z,6.5
2019-06-26T03:52:11.212Z,6.4
2019-06-26T03:53:10.221Z,6.6
2019-06-26T03:54:10.214Z,6.9
2019-06-26T03:55:11.213Z,6.3
2019-06-26T03:56:11.172Z,6.5
2019-06-26T03:57:10.763Z,6.3
2019-06-26T03:58:11.175Z,6.4
2019-06-26T03:59:10.153Z,6.3
2019-06-26T04:00:10.189Z,6.6
2019-06-26T04:01:10.156Z,6.7
2019-06-26T04:02:10.113Z,6.6
2019-06-26T04:03:10.094Z,6.8
2019-06-26T04:04:10.106Z,7.2
2019-06-26T04:05:10.136Z,6.7
2019-06-26T04:06:10.069Z,6.8
2019-06-26T04:07:10.063Z,6.9
2019-06-26T04:08:10.055Z,6.6
2019-06-26T04:09:10.062Z,6.9
2019-06-26T04:10:10.064Z,6.6
2019-06-26T04:11:10.080Z,7.5
2019-06-26T04:12:10.062Z,6.7
2019-06-26T04:13:11.023Z,7
2019-06-26T04:14:09.997Z,7
2019-06-26T04:15:09.972Z,6.8
2019-06-26T04:16:09.996Z,6.7
2019-06-26T04:17:09.992Z,6.8
2019-06-26T04:18:09.951Z,6.7
2019-06-26T04:19:09.921Z,7
2019-06-26T04:20:09.970Z,7
2019-06-26T04:21:10.001Z,6.9
2019-06-26T04:22:09.915Z,6.6
2019-06-26T04:23:10.910Z,6.6
2019-06-26T04:24:09.876Z,7
2019-06-26T04:25:09.877Z,6.8
2019-06-26T04:26:09.948Z,6.9
2019-06-26T04:27:09.915Z,6.7
2019-06-26T04:28:09.836Z,6.6
2019-06-26T04:29:09.846Z,6.9
2019-06-26T04:30:09.829Z,6.6
2019-06-26T04:31:09.900Z,7.1
2019-06-26T04:32:09.797Z,6.7
2019-06-26T04:33:09.794Z,6.6
2019-06-26T04:34:09.775Z,7.2
2019-06-26T04:35:09.759Z,7
2019-06-26T04:36:09.808Z,6.6
2019-06-26T04:37:09.746Z,6.8
2019-06-26T04:38:09.999Z,6.9
2019-06-26T04:39:09.732Z,7
2019-06-26T04:40:09.715Z,6.7
2019-06-26T04:41:09.710Z,7
2019-06-26T04:42:09.708Z,7.3
2019-06-26T04:43:09.684Z,7
2019-06-26T04:44:09.687Z,6.8
2019-06-26T04:45:09.687Z,6.8
2019-06-26T04:46:09.670Z,6.9
2019-06-26T04:47:09.759Z,7.1
2019-06-26T04:48:10.662Z,7
2019-06-26T04:49:09.621Z,7.1
2019-06-26T04:50:09.623Z,7.3
2019-06-26T04:51:09.594Z,6.7
2019-06-26T04:52:09.694Z,7.2
2019-06-26T04:53:09.599Z,7.1
2019-06-26T04:54:09.582Z,7.1
2019-06-26T04:55:09.577Z,7
2019-06-26T04:56:09.591Z,6.5
2019-06-26T04:57:11.092Z,7.2
2019-06-26T04:58:09.547Z,6.8
2019-06-26T04:59:09.576Z,7.1
2019-06-26T05:00:09.577Z,7.3
2019-06-26T05:01:11.501Z,7.2
2019-06-26T05:02:09.570Z,6.7
2019-06-26T05:03:09.490Z,7.1
2019-06-26T05:04:09.486Z,7.4
2019-06-26T05:05:09.481Z,7.6
2019-06-26T05:06:09.457Z,7.7
2019-06-26T05:07:09.479Z,7.2
2019-06-26T05:08:09.440Z,7.7
2019-06-26T05:09:09.446Z,7
2019-06-26T05:10:09.437Z,7.8
2019-06-26T05:11:12.406Z,6.8
2019-06-26T05:12:10.421Z,7.1
2019-06-26T05:13:09.395Z,7.8
2019-06-26T05:14:09.376Z,7.7
2019-06-26T05:15:09.389Z,7.9
2019-06-26T05:16:15.564Z,7.6
2019-06-26T05:17:10.349Z,7.9
2019-06-26T05:18:09.345Z,8.6
2019-06-26T05:19:09.342Z,7.8
2019-06-26T05:20:09.305Z,8.6
2019-06-26T05:21:09.444Z,8.4
2019-06-26T05:22:09.304Z,8.2
2019-06-26T05:23:09.290Z,8.5
2019-06-26T05:24:09.286Z,7.8
2019-06-26T05:25:09.268Z,7.7
2019-06-26T05:26:09.301Z,7.9
2019-06-26T05:27:09.252Z,8.2
2019-06-26T05:28:10.208Z,8.3
2019-06-26T05:29:10.204Z,8
2019-06-26T05:30:09.829Z,8.2
2019-06-26T05:31:09.231Z,8.6
2019-06-26T05:32:09.203Z,8.6
2019-06-26T05:33:09.216Z,8.8
2019-06-26T05:34:11.317Z,8.5
2019-06-26T05:35:09.162Z,8.7
2019-06-26T05:36:09.153Z,9.1
2019-06-26T05:37:09.225Z,8.9
2019-06-26T05:38:09.153Z,8.5
2019-06-26T05:39:09.123Z,8.8
2019-06-26T05:40:09.095Z,9
2019-06-26T05:41:09.098Z,8.8
2019-06-26T05:42:10.134Z,8.7
2019-06-26T05:43:09.057Z,8.9
2019-06-26T05:44:09.072Z,8
2019-06-26T05:45:09.076Z,8.6
2019-06-26T05:46:09.035Z,8.3
2019-06-26T05:47:10.064Z,8.7
2019-06-26T05:48:09.040Z,8.2
2019-06-26T05:49:08.998Z,7.8
2019-06-26T05:50:08.983Z,8.5
2019-06-26T05:51:08.981Z,8.1
2019-06-26T05:52:09.208Z,8.2
2019-06-26T05:53:08.974Z,8.2
2019-06-26T05:54:09.019Z,7.9
2019-06-26T05:55:08.944Z,7.5
2019-06-26T05:56:08.933Z,8.2
2019-06-26T05:57:09.568Z,8.3
2019-06-26T05:58:09.920Z,8.3
2019-06-26T05:59:08.893Z,8.5
2019-06-26T06:00:08.891Z,8.5
2019-06-26T06:01:08.866Z,8.4
2019-06-26T06:02:08.861Z,8.5
2019-06-26T06:03:08.864Z,8.3
2019-06-26T06:04:08.862Z,8.3
2019-06-26T06:05:08.869Z,8.5
2019-06-26T06:06:08.825Z,8.2
2019-06-26T06:07:08.855Z,8.7
2019-06-26T06:08:08.861Z,8.4
2019-06-26T06:09:08.786Z,8.2
2019-06-26T06:10:08.797Z,8
2019-06-26T06:11:08.766Z,8.5
2019-06-26T06:12:08.778Z,8
2019-06-26T06:13:08.819Z,8.5
2019-06-26T06:14:08.814Z,8.8
2019-06-26T06:15:08.739Z,8.3
2019-06-26T06:16:09.710Z,8.2
2019-06-26T06:17:08.701Z,7.8
2019-06-26T06:18:08.759Z,8
2019-06-26T06:19:08.715Z,7.7
2019-06-26T06:20:08.685Z,8.4
2019-06-26T06:21:08.979Z,7.9
2019-06-26T06:22:08.646Z,7.6
2019-06-26T06:23:08.756Z,7.7
2019-06-26T06:24:08.632Z,7.9
2019-06-26T06:25:08.618Z,8.3
2019-06-26T06:26:08.614Z,7.7
2019-06-26T06:27:08.597Z,8.2
2019-06-26T06:28:08.597Z,8.8
2019-06-26T06:29:08.577Z,9
2019-06-26T06:30:08.568Z,8.3
2019-06-26T06:31:08.558Z,11.2
2019-06-26T06:32:08.679Z,11.1
2019-06-26T06:33:08.539Z,11.1
2019-06-26T06:34:08.640Z,11.6
2019-06-26T06:35:08.586Z,11
2019-06-26T06:36:10.514Z,12
2019-06-26T06:37:08.551Z,12.4
2019-06-26T06:38:08.508Z,13.4
2019-06-26T06:39:08.594Z,12.5
2019-06-26T06:40:08.507Z,12.1
2019-06-26T06:41:08.449Z,11.7
2019-06-26T06:42:08.436Z,11.2
2019-06-26T06:43:08.434Z,10.6
2019-06-26T06:44:08.558Z,10.5
2019-06-26T06:45:08.409Z,11.3
2019-06-26T06:46:08.393Z,10.8
2019-06-26T06:47:10.370Z,10.8
2019-06-26T06:48:08.386Z,10.5
2019-06-26T06:49:08.438Z,10.4
2019-06-26T06:50:08.366Z,10.6
2019-06-26T06:51:08.349Z,10.4
2019-06-26T06:52:08.332Z,9.6
2019-06-26T06:53:08.326Z,10.4
2019-06-26T06:54:08.328Z,10
2019-06-26T06:55:08.317Z,8.3
2019-06-26T06:56:08.289Z,9.7
2019-06-26T06:57:08.288Z,9.5
2019-06-26T06:58:09.303Z,9.2
2019-06-26T06:59:08.272Z,9.1
2019-06-26T07:00:08.316Z,8.4
2019-06-26T07:01:08.254Z,8.3
2019-06-26T07:02:08.233Z,8.6
2019-06-26T07:03:08.237Z,8.5
2019-06-26T07:04:08.214Z,8.8
2019-06-26T07:05:08.271Z,8.4
2019-06-26T07:06:09.252Z,8.7
2019-06-26T07:07:08.180Z,8.2
2019-06-26T07:08:08.174Z,8.2
2019-06-26T07:09:08.156Z,7.5
2019-06-26T07:10:08.164Z,8.1
2019-06-26T07:11:08.254Z,8.3
2019-06-26T07:12:08.152Z,7.7
2019-06-26T07:13:08.114Z,7.4
2019-06-26T07:14:08.108Z,7.6
2019-06-26T07:15:08.097Z,7.3
2019-06-26T07:16:08.487Z,7.1
2019-06-26T07:17:20.226Z,7.3
2019-06-26T07:18:10.093Z,7.1
2019-06-26T07:19:08.089Z,7.1
2019-06-26T07:20:08.086Z,7
2019-06-26T07:21:08.098Z,7.3
2019-06-26T07:22:09.061Z,7
2019-06-26T07:23:08.018Z,7
2019-06-26T07:24:08.019Z,7.9
2019-06-26T07:25:07.995Z,7.7
2019-06-26T07:26:08.066Z,8.4
2019-06-26T07:27:08.973Z,27.799999
2019-06-26T07:28:08.012Z,25.9
2019-06-26T07:29:07.965Z,25.700001
2019-06-26T07:30:07.968Z,28
2019-06-26T07:31:07.995Z,35.799999
2019-06-26T07:32:07.940Z,35.099998
2019-06-26T07:33:07.933Z,37.400002
2019-06-26T07:34:07.919Z,53.299999
2019-06-26T07:35:07.884Z,66.900002
2019-06-26T07:36:07.927Z,70
2019-06-26T07:37:08.001Z,84.900002
2019-06-26T07:38:07.886Z,77.800003
2019-06-26T07:39:07.864Z,82.099998
2019-06-26T07:40:07.860Z,86.099998
2019-06-26T07:41:07.832Z,89.400002
2019-06-26T07:42:08.027Z,83.5
2019-06-26T07:43:08.874Z,75.300003
2019-06-26T07:44:07.869Z,75.300003
2019-06-26T07:45:07.850Z,69.400002
2019-06-26T07:46:07.869Z,69
2019-06-26T07:47:22.213Z,62.700001
2019-06-26T07:48:08.775Z,62.299999
2019-06-26T07:49:07.751Z,59.700001
2019-06-26T07:50:07.741Z,57.700001
2019-06-26T07:51:08.255Z,50
2019-06-26T07:52:07.780Z,53.400002
2019-06-26T07:53:07.729Z,49.5
2019-06-26T07:54:07.736Z,50.400002
2019-06-26T07:55:11.507Z,46.5
2019-06-26T07:56:08.686Z,39.5
2019-06-26T07:57:07.655Z,39.200001
2019-06-26T07:58:07.667Z,35.599998
2019-06-26T07:59:08.667Z,30.5
2019-06-26T08:00:07.813Z,28.200001
2019-06-26T08:01:07.699Z,30.9
2019-06-26T08:02:07.692Z,29.1
2019-06-26T08:03:07.737Z,27.6
2019-06-26T08:04:07.590Z,26.1
2019-06-26T08:05:07.592Z,20.299999
2019-06-26T08:06:08.005Z,21.4
2019-06-26T08:07:07.616Z,17.799999
2019-06-26T08:08:07.626Z,18.4
2019-06-26T08:09:07.639Z,16.9
2019-06-26T08:10:07.658Z,17.5
2019-06-26T08:11:08.532Z,16.1
2019-06-26T08:12:07.540Z,17.1
2019-06-26T08:13:07.596Z,15.9
2019-06-26T08:14:07.477Z,14.2
2019-06-26T08:15:07.520Z,15.9
2019-06-26T08:16:07.490Z,15.2
2019-06-26T08:17:07.898Z,13.7
2019-06-26T08:18:07.547Z,13.1
2019-06-26T08:19:07.448Z,11.9
2019-06-26T08:20:07.457Z,12.2
2019-06-26T08:21:12.964Z,12.1
2019-06-26T08:22:07.409Z,12.8
2019-06-26T08:23:07.425Z,11.8
2019-06-26T08:24:07.454Z,12.1
2019-06-26T08:25:07.401Z,12.1
2019-06-26T08:26:07.472Z,12
2019-06-26T08:27:07.373Z,11.6
2019-06-26T08:28:07.361Z,11.8
2019-06-26T08:29:07.403Z,12
2019-06-26T08:30:07.337Z,11
2019-06-26T08:31:07.439Z,10.9
2019-06-26T08:32:07.337Z,10.4
2019-06-26T08:33:07.297Z,10.1
2019-06-26T08:34:07.365Z,9.9
2019-06-26T08:35:07.280Z,9.4
2019-06-26T08:36:07.260Z,9.8
2019-06-26T08:37:07.247Z,10.5
2019-06-26T08:38:15.249Z,9.7
2019-06-26T08:39:08.278Z,9
2019-06-26T08:40:07.263Z,9
2019-06-26T08:41:07.330Z,9.2
2019-06-26T08:42:07.213Z,8.9
2019-06-26T08:43:07.207Z,9.2
2019-06-26T08:44:07.448Z,9.2
2019-06-26T08:45:07.191Z,9
2019-06-26T08:46:07.164Z,8.7
2019-06-26T08:47:07.150Z,8.7
2019-06-26T08:48:19.205Z,9.1
2019-06-26T08:49:24.216Z,8.7
2019-06-26T08:50:08.100Z,9
2019-06-26T08:51:07.103Z,8.5
2019-06-26T08:52:07.102Z,8.8
2019-06-26T08:53:07.171Z,8.7
2019-06-26T08:54:08.181Z,8.6
2019-06-26T08:55:07.044Z,9.1
2019-06-26T08:56:07.261Z,8.6
2019-06-26T08:57:07.499Z,8.8
2019-06-26T08:58:07.234Z,9
2019-06-26T08:59:07.023Z,8
2019-06-26T09:00:07.008Z,8.7
2019-06-26T09:01:07.014Z,9.2
2019-06-26T09:02:07.178Z,8.8
2019-06-26T09:03:07.981Z,8.9
2019-06-26T09:04:06.964Z,9
2019-06-26T09:05:07.055Z,8.6
2019-06-26T09:06:06.952Z,9.4
2019-06-26T09:07:07.135Z,9.8
2019-06-26T09:08:12.436Z,9
2019-06-26T09:09:06.910Z,9.1
2019-06-26T09:10:07.047Z,9.6
2019-06-26T09:11:06.911Z,9.7
2019-06-26T09:12:06.908Z,9.9
2019-06-26T09:13:06.925Z,10.1
2019-06-26T09:14:06.919Z,9.7
2019-06-26T09:15:07.037Z,9.5
2019-06-26T09:16:07.049Z,9
2019-06-26T09:17:06.940Z,9.2
2019-06-26T09:18:07.145Z,9.4
2019-06-26T09:19:07.227Z,9.5
2019-06-26T09:20:07.013Z,9.8
2019-06-26T09:21:06.877Z,9.4
2019-06-26T09:22:06.807Z,9.5
2019-06-26T09:23:06.855Z,9.5
2019-06-26T09:24:06.869Z,9
2019-06-26T09:25:21.350Z,9
2019-06-26T09:26:07.723Z,8.8
2019-06-26T09:27:06.767Z,9.7
2019-06-26T09:28:06.747Z,9.4
2019-06-26T09:29:06.698Z,9.6
2019-06-26T09:30:06.696Z,9.2
2019-06-26T09:31:07.448Z,9.4
2019-06-26T09:32:07.034Z,9.6
2019-06-26T09:33:06.698Z,9.4
2019-06-26T09:34:06.726Z,9.3
2019-06-26T09:35:06.795Z,9.1
2019-06-26T09:36:08.619Z,9.7
2019-06-26T09:37:06.719Z,9.1
2019-06-26T09:38:06.782Z,9.7
2019-06-26T09:39:06.602Z,9.6
2019-06-26T09:40:07.700Z,9.1
2019-06-26T09:41:06.914Z,9.1
2019-06-26T09:42:06.565Z,9.1
2019-06-26T09:43:06.573Z,9.3
2019-06-26T09:44:06.567Z,9.3
2019-06-26T09:45:06.573Z,9.2
2019-06-26T09:46:06.836Z,10.5
2019-06-26T09:47:06.759Z,9.6
2019-06-26T09:48:06.534Z,10.2
2019-06-26T09:49:06.564Z,9.9
2019-06-26T09:50:06.490Z,9.4
2019-06-26T09:51:06.537Z,9.5
2019-06-26T09:52:06.482Z,9
2019-06-26T09:53:07.543Z,9.1
2019-06-26T09:54:06.468Z,9.1
2019-06-26T09:55:07.164Z,8.8
2019-06-26T09:56:06.485Z,8.6
2019-06-26T09:57:09.540Z,9.1
2019-06-26T09:58:08.728Z,8.6
2019-06-26T09:59:09.731Z,8.8
2019-06-26T10:00:08.948Z,9.7
2019-06-26T10:01:06.902Z,9.4
2019-06-26T10:02:06.386Z,10.1
2019-06-26T10:03:06.372Z,10.9
2019-06-26T10:04:06.353Z,8.9
2019-06-26T10:05:06.364Z,8.7
2019-06-26T10:06:06.577Z,8.3
2019-06-26T10:07:06.309Z,8.7
2019-06-26T10:08:06.308Z,9
2019-06-26T10:09:06.717Z,8.2
2019-06-26T10:10:06.279Z,8.4
2019-06-26T10:11:08.058Z,7.5
2019-06-26T10:12:06.306Z,7.7
2019-06-26T10:13:06.273Z,7.9
2019-06-26T10:14:06.438Z,7.5
2019-06-26T10:15:06.325Z,7.2
2019-06-26T10:16:06.371Z,7.2
2019-06-26T10:17:06.220Z,8.1
2019-06-26T10:18:06.281Z,7.5
2019-06-26T10:19:10.781Z,7.1
2019-06-26T10:20:06.215Z,7.4
2019-06-26T10:21:06.589Z,8.3
2019-06-26T10:22:06.164Z,7.8
2019-06-26T10:23:06.384Z,8.3
2019-06-26T10:24:06.425Z,7.6
2019-06-26T10:25:06.486Z,8.2
2019-06-26T10:26:07.142Z,8.2
2019-06-26T10:27:06.155Z,8.3
2019-06-26T10:28:06.186Z,8.3
2019-06-26T10:29:06.106Z,8.3
2019-06-26T10:30:06.151Z,8.5
2019-06-26T10:31:06.081Z,8.3
2019-06-26T10:32:06.176Z,8.7
2019-06-26T10:33:06.050Z,8.3
2019-06-26T10:34:09.771Z,7.9
2019-06-26T10:35:07.017Z,8
2019-06-26T10:36:06.022Z,8.2
2019-06-26T10:37:06.049Z,8.7
2019-06-26T10:38:06.716Z,7.9
2019-06-26T10:39:05.971Z,8
2019-06-26T10:40:06.989Z,7.9
2019-06-26T10:41:05.977Z,7.3
2019-06-26T10:42:06.024Z,8.3
2019-06-26T10:43:05.985Z,7.5
2019-06-26T10:44:05.944Z,7.4
2019-06-26T10:45:05.943Z,7.5
2019-06-26T10:46:05.915Z,7
2019-06-26T10:47:05.987Z,7.6
2019-06-26T10:48:05.889Z,7.6
2019-06-26T10:49:05.884Z,8.1
2019-06-26T10:50:05.895Z,8
2019-06-26T10:51:05.882Z,7.7
2019-06-26T10:52:05.830Z,8
2019-06-26T10:53:05.829Z,8
2019-06-26T10:54:05.830Z,7.9
2019-06-26T10:55:05.841Z,7.5
2019-06-26T10:56:05.802Z,8
2019-06-26T10:57:05.867Z,8.1
2019-06-26T10:58:05.846Z,8.1
2019-06-26T11:00:22.633Z,8.6
2019-06-26T11:00:41.461Z,8.4
2019-06-26T11:01:41.400Z,8.6
2019-06-26T11:02:41.392Z,8.9
2019-06-26T11:03:41.383Z,9.6
2019-06-26T11:04:41.379Z,12.1
2019-06-26T11:05:41.355Z,10.7
2019-06-26T11:06:41.357Z,10.3
2019-06-26T11:07:41.341Z,11
2019-06-26T11:08:41.332Z,9.6
2019-06-26T11:09:41.321Z,8.9
2019-06-26T11:10:41.394Z,9.4
2019-06-26T11:11:41.294Z,9.8
2019-06-26T11:12:42.309Z,9
2019-06-26T11:13:41.274Z,9.6
2019-06-26T11:14:41.304Z,9.3
2019-06-26T11:15:41.398Z,9.6
2019-06-26T11:16:41.254Z,9.3
2019-06-26T11:17:41.981Z,9.6
2019-06-26T11:18:42.139Z,9.1
2019-06-26T11:19:44.662Z,8.9
2019-06-26T11:20:42.352Z,9.1
2019-06-26T11:21:42.835Z,9.4
2019-06-26T11:22:41.360Z,9.2
2019-06-26T11:23:41.166Z,9
2019-06-26T11:24:41.225Z,8.2
2019-06-26T11:25:44.270Z,9.1
2019-06-26T11:26:42.136Z,9
2019-06-26T11:27:41.134Z,9.1
2019-06-26T11:28:41.115Z,8.6
2019-06-26T11:29:41.124Z,8.7
2019-06-26T11:30:41.102Z,9
2019-06-26T11:31:42.101Z,8.8
2019-06-26T11:32:41.080Z,8.3
2019-06-26T11:33:41.069Z,9
2019-06-26T11:34:41.059Z,9
2019-06-26T11:35:41.128Z,8.7
2019-06-26T11:36:42.082Z,8.7
2019-06-26T11:37:41.027Z,8.7
2019-06-26T11:38:41.011Z,8.7
2019-06-26T11:39:41.017Z,8.5
2019-06-26T11:40:40.997Z,8.2
2019-06-26T11:41:41.054Z,8.7
2019-06-26T11:42:40.974Z,8.5
2019-06-26T11:43:40.972Z,8.6
2019-06-26T11:44:41.053Z,8.8
2019-06-26T11:45:40.943Z,7.9
2019-06-26T11:46:40.942Z,8.8
2019-06-26T11:47:45.457Z,8.3
2019-06-26T11:48:41.919Z,7.9
2019-06-26T11:49:40.985Z,8.6
2019-06-26T11:50:40.906Z,9
2019-06-26T11:51:40.898Z,8.6
2019-06-26T11:52:40.867Z,8.3
2019-06-26T11:53:40.862Z,8.6
2019-06-26T11:54:40.961Z,8.2
2019-06-26T11:55:40.850Z,8.5
2019-06-26T11:56:40.856Z,8.5
2019-06-26T11:57:40.822Z,8.5
2019-06-26T11:58:40.809Z,8.3
2019-06-26T11:59:41.163Z,8.6
2019-06-26T12:00:43.470Z,9
2019-06-26T12:01:40.782Z,8.6
2019-06-26T12:02:40.789Z,8.8
2019-06-26T12:03:40.753Z,8.3
2019-06-26T12:04:40.797Z,8.8
2019-06-26T12:05:40.851Z,8.8
2019-06-26T12:06:44.858Z,8.5
2019-06-26T12:07:41.755Z,8.9
2019-06-26T12:08:40.721Z,9
2019-06-26T12:09:40.717Z,8.9
2019-06-26T12:10:40.802Z,9.1
2019-06-26T12:11:40.717Z,9.5
2019-06-26T12:12:40.808Z,10
2019-06-26T12:13:41.646Z,9.6
2019-06-26T12:14:40.629Z,10.2
2019-06-26T12:15:42.020Z,10.3
2019-06-26T12:16:40.607Z,10.1
2019-06-26T12:17:40.894Z,10.5
2019-06-26T12:18:40.611Z,10
2019-06-26T12:19:40.586Z,10.5
2019-06-26T12:20:40.652Z,10.4
2019-06-26T12:21:40.558Z,10.4
2019-06-26T12:22:40.589Z,10.3
2019-06-26T12:23:40.554Z,10.9
2019-06-26T12:24:41.508Z,10.6
2019-06-26T12:25:40.517Z,11.1
2019-06-26T12:26:40.513Z,11.7
2019-06-26T12:27:40.507Z,12.1
2019-06-26T12:28:40.510Z,11.4
2019-06-26T12:29:40.499Z,12.1
2019-06-26T12:30:40.491Z,12.4
2019-06-26T12:31:40.605Z,12.8
2019-06-26T12:32:58.023Z,12.2
2019-06-26T12:33:41.488Z,12.4
2019-06-26T12:34:44.838Z,12.7
2019-06-26T12:35:42.028Z,12.4
2019-06-26T12:36:40.494Z,11.7
2019-06-26T12:37:41.387Z,11.2
2019-06-26T12:38:40.397Z,11.9
2019-06-26T12:39:40.376Z,11.5
2019-06-26T12:40:40.373Z,11.5
2019-06-26T12:41:41.684Z,11.6
2019-06-26T12:42:40.397Z,10.8
2019-06-26T12:43:40.339Z,10.8
2019-06-26T12:44:40.366Z,10.7
2019-06-26T12:45:40.324Z,10.7
2019-06-26T12:46:40.305Z,10.4
2019-06-26T12:47:40.298Z,10.6
2019-06-26T12:48:40.298Z,10.6
2019-06-26T12:49:40.280Z,11.1
2019-06-26T12:50:40.267Z,10.2
2019-06-26T12:51:40.260Z,10.7
2019-06-26T12:52:40.394Z,10.5
2019-06-26T12:53:41.154Z,10.5
2019-06-26T12:54:40.407Z,10.4
2019-06-26T12:55:40.290Z,10.4
2019-06-26T12:56:40.285Z,11
2019-06-26T12:57:40.399Z,11.3
2019-06-26T12:58:40.233Z,11.4
2019-06-26T12:59:55.830Z,11.8
2019-06-26T13:00:41.175Z,12.1
2019-06-26T13:01:41.012Z,12.3
2019-06-26T13:02:40.316Z,11.8
2019-06-26T13:03:40.402Z,11.4
2019-06-26T13:04:40.155Z,12.3
2019-06-26T13:05:41.105Z,11.5
2019-06-26T13:06:40.089Z,12.6
2019-06-26T13:07:40.152Z,12.5
2019-06-26T13:08:40.082Z,13.2
2019-06-26T13:09:40.089Z,13
2019-06-26T13:10:49.266Z,12.5
2019-06-26T13:11:41.062Z,13
2019-06-26T13:12:40.047Z,13.7
2019-06-26T13:13:40.027Z,14
2019-06-26T13:14:40.018Z,14
2019-06-26T13:15:40.056Z,13.9
2019-06-26T13:16:40.081Z,13.8
2019-06-26T13:17:39.980Z,14.5
2019-06-26T13:18:40.086Z,13.6
2019-06-26T13:19:39.986Z,13.9
2019-06-26T13:20:52.546Z,14.8
2019-06-26T13:21:42.086Z,13.8
2019-06-26T13:22:39.992Z,14.5
2019-06-26T13:23:40.051Z,14
2019-06-26T13:24:42.982Z,13.1
2019-06-26T13:25:40.924Z,14.2
2019-06-26T13:26:39.890Z,13.5
2019-06-26T13:27:39.885Z,13.6
2019-06-26T13:28:39.945Z,14.4
2019-06-26T13:29:40.869Z,14.1
2019-06-26T13:30:39.889Z,13.5
2019-06-26T13:31:39.846Z,14.2
2019-06-26T13:32:39.860Z,13.6
2019-06-26T13:33:40.136Z,14.2
2019-06-26T13:34:39.812Z,13.5
2019-06-26T13:35:39.847Z,13.3
2019-06-26T13:36:39.893Z,12.9
2019-06-26T13:37:39.777Z,13.6
2019-06-26T13:38:39.771Z,12.3
2019-06-26T13:39:39.766Z,12.1
2019-06-26T13:40:41.737Z,11.4
2019-06-26T13:41:39.768Z,11.6
2019-06-26T13:42:39.725Z,12